sensor_id;sensor_type;location;lat;lon;timestamp;pressure;altitude;pressure_sealevel;temperature;humidity
33280;BME280;20403;43.114;12.434;2022-12-20T00:00:10;100669.13;;;5.09;100.00
33280;BME280;20403;43.114;12.434;2022-12-20T00:02:36;100664.16;;;5.16;100.00
33280;BME280;20403;43.114;12.434;2022-12-20T00:05:01;100665.56;;;5.28;100.00
33280;BME280;20403;43.114;12.434;2022-12-20T00:07:26;100666.09;;;5.32;100.00
33280;BME280;20403;43.114;12.434;2022-12-20T00:09:51;100668.59;;;5.41;100.00
33280;BME280;20403;43.114;12.434;2022-12-20T00:12:17;100667.94;;;5.39;100.00
33280;BME280;20403;43.114;12.434;2022-12-20T00:14:42;100665.19;;;5.41;100.00
33280;BME280;20403;43.114;12.434;2022-12-20T00:17:07;100671.63;;;5.37;100.00
33280;BME280;20403;43.114;12.434;2022-12-20T00:19:33;100667.03;;;5.31;100.00
33280;BME280;20403;43.114;12.434;2022-12-20T00:21:58;100664.91;;;5.26;100.00
33280;BME280;20403;43.114;12.434;2022-12-20T00:24:23;100663.06;;;5.36;100.00
33280;BME280;20403;43.114;12.434;2022-12-20T00:26:49;100660.63;;;5.35;100.00
33280;BME280;20403;43.114;12.434;2022-12-20T00:29:14;100650.72;;;5.30;100.00
33280;BME280;20403;43.114;12.434;2022-12-20T00:31:39;100649.69;;;5.23;100.00
33280;BME280;20403;43.114;12.434;2022-12-20T00:34:05;100650.72;;;5.12;100.00
33280;BME280;20403;43.114;12.434;2022-12-20T00:36:30;100657.66;;;5.12;100.00
33280;BME280;20403;43.114;12.434;2022-12-20T00:38:57;100662.97;;;5.10;100.00
33280;BME280;20403;43.114;12.434;2022-12-20T00:41:23;100656.19;;;5.27;100.00
33280;BME280;20403;43.114;12.434;2022-12-20T00:43:49;100661.94;;;5.39;100.00
33280;BME280;20403;43.114;12.434;2022-12-20T00:46:14;100650.72;;;5.48;100.00
33280;BME280;20403;43.114;12.434;2022-12-20T00:48:40;100647.16;;;5.49;100.00
33280;BME280;20403;43.114;12.434;2022-12-20T00:51:07;100643.75;;;5.48;100.00
33280;BME280;20403;43.114;12.434;2022-12-20T00:53:32;100648.63;;;5.34;100.00
33280;BME280;20403;43.114;12.434;2022-12-20T00:55:58;100660.47;;;5.36;100.00
33280;BME280;20403;43.114;12.434;2022-12-20T00:58:24;100655.13;;;5.38;100.00
33280;BME280;20403;43.114;12.434;2022-12-20T01:00:49;100646.25;;;5.40;100.00
33280;BME280;20403;43.114;12.434;2022-12-20T01:03:15;100646.44;;;5.21;100.00
33280;BME280;20403;43.114;12.434;2022-12-20T01:05:48;100643.75;;;5.31;100.00
33280;BME280;20403;43.114;12.434;2022-12-20T01:08:13;100642.16;;;5.30;100.00
33280;BME280;20403;43.114;12.434;2022-12-20T01:10:39;100647.00;;;5.15;100.00
33280;BME280;20403;43.114;12.434;2022-12-20T01:13:04;100648.13;;;5.12;100.00
33280;BME280;20403;43.114;12.434;2022-12-20T01:15:29;100648.94;;;5.13;100.00
33280;BME280;20403;43.114;12.434;2022-12-20T01:17:55;100637.88;;;5.20;100.00
33280;BME280;20403;43.114;12.434;2022-12-20T01:20:21;100636.81;;;5.31;100.00
33280;BME280;20403;43.114;12.434;2022-12-20T01:22:47;100637.38;;;5.43;100.00
33280;BME280;20403;43.114;12.434;2022-12-20T01:25:12;100631.94;;;5.46;100.00
33280;BME280;20403;43.114;12.434;2022-12-20T01:27:37;100641.69;;;5.34;100.00
33280;BME280;20403;43.114;12.434;2022-12-20T01:30:02;100641.78;;;5.24;100.00
33280;BME280;20403;43.114;12.434;2022-12-20T01:32:28;100644.66;;;5.39;100.00
33280;BME280;20403;43.114;12.434;2022-12-20T01:34:53;100645.53;;;5.48;100.00
33280;BME280;20403;43.114;12.434;2022-12-20T01:37:18;100637.69;;;5.40;100.00
33280;BME280;20403;43.114;12.434;2022-12-20T01:39:44;100639.69;;;5.46;100.00
33280;BME280;20403;43.114;12.434;2022-12-20T01:42:12;100634.00;;;5.42;100.00
33280;BME280;20403;43.114;12.434;2022-12-20T01:44:49;100641.09;;;5.40;100.00
33280;BME280;20403;43.114;12.434;2022-12-20T01:47:15;100647.59;;;5.44;100.00
33280;BME280;20403;43.114;12.434;2022-12-20T01:49:44;100631.72;;;5.39;100.00
33280;BME280;20403;43.114;12.434;2022-12-20T01:52:26;100634.16;;;5.41;100.00
33280;BME280;20403;43.114;12.434;2022-12-20T01:57:20;100632.03;;;5.62;100.00
33280;BME280;20403;43.114;12.434;2022-12-20T01:59:46;100624.22;;;5.54;100.00
33280;BME280;20403;43.114;12.434;2022-12-20T02:02:12;100616.69;;;5.43;100.00
33280;BME280;20403;43.114;12.434;2022-12-20T02:04:38;100614.63;;;5.46;100.00
33280;BME280;20403;43.114;12.434;2022-12-20T02:07:04;100620.91;;;5.44;100.00
33280;BME280;20403;43.114;12.434;2022-12-20T02:09:30;100619.78;;;5.20;100.00
33280;BME280;20403;43.114;12.434;2022-12-20T02:12:16;100613.78;;;5.20;100.00
33280;BME280;20403;43.114;12.434;2022-12-20T02:30:07;100613.03;;;5.45;100.00
33280;BME280;20403;43.114;12.434;2022-12-20T02:35:30;100605.97;;;5.56;100.00
33280;BME280;20403;43.114;12.434;2022-12-20T02:37:57;100601.00;;;5.62;100.00
33280;BME280;20403;43.114;12.434;2022-12-20T02:40:24;100588.88;;;5.63;100.00
33280;BME280;20403;43.114;12.434;2022-12-20T02:42:52;100582.88;;;5.62;100.00
33280;BME280;20403;43.114;12.434;2022-12-20T02:45:19;100584.88;;;5.68;100.00
33280;BME280;20403;43.114;12.434;2022-12-20T02:47:48;100580.66;;;5.67;100.00
33280;BME280;20403;43.114;12.434;2022-12-20T02:50:16;100590.53;;;5.72;100.00
33280;BME280;20403;43.114;12.434;2022-12-20T02:52:42;100587.81;;;5.74;100.00
33280;BME280;20403;43.114;12.434;2022-12-20T02:55:08;100589.28;;;5.76;100.00
33280;BME280;20403;43.114;12.434;2022-12-20T03:00:07;100586.47;;;5.69;100.00
33280;BME280;20403;43.114;12.434;2022-12-20T03:02:32;100585.38;;;5.72;100.00
33280;BME280;20403;43.114;12.434;2022-12-20T03:05:18;100583.84;;;5.61;100.00
33280;BME280;20403;43.114;12.434;2022-12-20T03:07:44;100581.16;;;5.71;100.00
33280;BME280;20403;43.114;12.434;2022-12-20T03:10:09;100582.66;;;5.82;100.00
33280;BME280;20403;43.114;12.434;2022-12-20T03:12:35;100575.53;;;5.76;100.00
33280;BME280;20403;43.114;12.434;2022-12-20T03:15:00;100579.13;;;5.57;100.00
33280;BME280;20403;43.114;12.434;2022-12-20T03:17:25;100583.84;;;5.61;100.00
33280;BME280;20403;43.114;12.434;2022-12-20T03:19:51;100574.88;;;5.74;100.00
33280;BME280;20403;43.114;12.434;2022-12-20T03:22:16;100574.34;;;5.70;100.00
33280;BME280;20403;43.114;12.434;2022-12-20T03:24:41;100576.03;;;5.53;100.00
33280;BME280;20403;43.114;12.434;2022-12-20T03:27:06;100575.78;;;5.64;100.00
33280;BME280;20403;43.114;12.434;2022-12-20T03:29:33;100576.00;;;5.71;100.00
33280;BME280;20403;43.114;12.434;2022-12-20T03:31:58;100568.38;;;5.69;100.00
33280;BME280;20403;43.114;12.434;2022-12-20T03:34:23;100572.56;;;5.71;100.00
33280;BME280;20403;43.114;12.434;2022-12-20T03:36:48;100567.25;;;5.72;100.00
33280;BME280;20403;43.114;12.434;2022-12-20T03:39:14;100566.13;;;5.75;100.00
33280;BME280;20403;43.114;12.434;2022-12-20T03:41:40;100566.47;;;5.80;100.00
33280;BME280;20403;43.114;12.434;2022-12-20T03:44:05;100561.16;;;5.81;100.00
33280;BME280;20403;43.114;12.434;2022-12-20T03:46:30;100565.63;;;5.71;100.00
33280;BME280;20403;43.114;12.434;2022-12-20T03:48:56;100573.34;;;5.63;100.00
33280;BME280;20403;43.114;12.434;2022-12-20T03:51:21;100567.38;;;5.71;100.00
33280;BME280;20403;43.114;12.434;2022-12-20T03:53:46;100570.34;;;5.76;100.00
33280;BME280;20403;43.114;12.434;2022-12-20T03:56:11;100562.06;;;5.72;100.00
33280;BME280;20403;43.114;12.434;2022-12-20T03:58:37;100560.28;;;5.73;100.00
33280;BME280;20403;43.114;12.434;2022-12-20T04:01:15;100555.22;;;5.63;100.00
33280;BME280;20403;43.114;12.434;2022-12-20T04:03:40;100547.47;;;5.63;100.00
33280;BME280;20403;43.114;12.434;2022-12-20T04:06:05;100540.63;;;5.54;100.00
33280;BME280;20403;43.114;12.434;2022-12-20T04:08:31;100548.38;;;5.54;100.00
33280;BME280;20403;43.114;12.434;2022-12-20T04:10:56;100553.69;;;5.52;100.00
33280;BME280;20403;43.114;12.434;2022-12-20T04:13:40;100546.25;;;5.49;100.00
33280;BME280;20403;43.114;12.434;2022-12-20T04:16:05;100540.38;;;5.39;100.00
33280;BME280;20403;43.114;12.434;2022-12-20T04:18:30;100560.63;;;5.43;100.00
33280;BME280;20403;43.114;12.434;2022-12-20T04:20:56;100553.66;;;5.44;100.00
33280;BME280;20403;43.114;12.434;2022-12-20T04:23:23;100554.81;;;5.50;100.00
33280;BME280;20403;43.114;12.434;2022-12-20T04:25:49;100549.25;;;5.62;100.00
33280;BME280;20403;43.114;12.434;2022-12-20T04:28:14;100551.16;;;5.60;100.00
33280;BME280;20403;43.114;12.434;2022-12-20T04:30:39;100543.88;;;5.56;100.00
33280;BME280;20403;43.114;12.434;2022-12-20T04:33:04;100540.63;;;5.54;100.00
33280;BME280;20403;43.114;12.434;2022-12-20T04:35:30;100540.88;;;5.68;100.00
33280;BME280;20403;43.114;12.434;2022-12-20T04:37:55;100540.88;;;5.68;100.00
33280;BME280;20403;43.114;12.434;2022-12-20T04:40:20;100536.09;;;5.56;100.00
33280;BME280;20403;43.114;12.434;2022-12-20T04:42:45;100536.56;;;5.51;100.00
33280;BME280;20403;43.114;12.434;2022-12-20T04:45:11;100546.72;;;5.44;100.00
33280;BME280;20403;43.114;12.434;2022-12-20T04:47:36;100537.22;;;5.53;100.00
33280;BME280;20403;43.114;12.434;2022-12-20T04:50:01;100532.75;;;5.63;100.00
33280;BME280;20403;43.114;12.434;2022-12-20T04:52:27;100531.06;;;5.54;100.00
33280;BME280;20403;43.114;12.434;2022-12-20T04:55:11;100538.75;;;5.64;100.00
33280;BME280;20403;43.114;12.434;2022-12-20T04:57:36;100537.56;;;5.58;100.00
33280;BME280;20403;43.114;12.434;2022-12-20T05:00:01;100538.22;;;5.60;100.00
33280;BME280;20403;43.114;12.434;2022-12-20T05:02:27;100538.91;;;5.62;100.00
33280;BME280;20403;43.114;12.434;2022-12-20T05:04:52;100540.81;;;5.60;100.00
33280;BME280;20403;43.114;12.434;2022-12-20T05:07:17;100540.16;;;5.58;100.00
33280;BME280;20403;43.114;12.434;2022-12-20T05:09:42;100543.41;;;5.60;100.00
33280;BME280;20403;43.114;12.434;2022-12-20T05:12:08;100536.63;;;5.59;100.00
33280;BME280;20403;43.114;12.434;2022-12-20T05:14:33;100533.66;;;5.54;100.00
33280;BME280;20403;43.114;12.434;2022-12-20T05:16:58;100528.94;;;5.50;100.00
33280;BME280;20403;43.114;12.434;2022-12-20T05:19:23;100525.88;;;5.46;100.00
33280;BME280;20403;43.114;12.434;2022-12-20T05:21:49;100530.28;;;5.28;100.00
33280;BME280;20403;43.114;12.434;2022-12-20T05:24:33;100531.63;;;5.14;100.00
33280;BME280;20403;43.114;12.434;2022-12-20T05:27:16;100523.84;;;5.32;100.00
33280;BME280;20403;43.114;12.434;2022-12-20T05:29:42;100528.94;;;5.23;100.00
33280;BME280;20403;43.114;12.434;2022-12-20T05:32:07;100531.22;;;5.26;100.00
33280;BME280;20403;43.114;12.434;2022-12-20T05:34:33;100530.22;;;5.19;100.00
33280;BME280;20403;43.114;12.434;2022-12-20T05:36:58;100526.06;;;5.26;100.00
33280;BME280;20403;43.114;12.434;2022-12-20T05:39:23;100517.03;;;5.31;100.00
33280;BME280;20403;43.114;12.434;2022-12-20T05:41:48;100517.69;;;5.33;100.00
33280;BME280;20403;43.114;12.434;2022-12-20T05:44:14;100525.25;;;5.26;100.00
33280;BME280;20403;43.114;12.434;2022-12-20T05:46:39;100523.56;;;5.17;100.00
33280;BME280;20403;43.114;12.434;2022-12-20T05:49:04;100525.41;;;5.24;100.00
33280;BME280;20403;43.114;12.434;2022-12-20T05:51:30;100524.31;;;5.27;100.00
33280;BME280;20403;43.114;12.434;2022-12-20T05:53:55;100528.34;;;5.30;100.00
33280;BME280;20403;43.114;12.434;2022-12-20T05:56:20;100531.41;;;5.25;100.00
33280;BME280;20403;43.114;12.434;2022-12-20T05:58:46;100530.50;;;5.34;100.00
33280;BME280;20403;43.114;12.434;2022-12-20T06:01:11;100524.91;;;5.21;100.00
33280;BME280;20403;43.114;12.434;2022-12-20T06:03:37;100529.63;;;5.25;100.00
33280;BME280;20403;43.114;12.434;2022-12-20T06:06:03;100535.44;;;5.28;100.00
33280;BME280;20403;43.114;12.434;2022-12-20T06:08:28;100532.50;;;5.22;100.00
33280;BME280;20403;43.114;12.434;2022-12-20T06:10:53;100524.47;;;5.08;100.00
33280;BME280;20403;43.114;12.434;2022-12-20T06:13:19;100532.97;;;5.18;100.00
33280;BME280;20403;43.114;12.434;2022-12-20T06:15:45;100528.94;;;5.23;100.00
33280;BME280;20403;43.114;12.434;2022-12-20T06:18:10;100531.22;;;5.26;100.00
33280;BME280;20403;43.114;12.434;2022-12-20T06:20:36;100528.81;;;5.25;100.00
33280;BME280;20403;43.114;12.434;2022-12-20T06:23:01;100530.63;;;5.07;100.00
33280;BME280;20403;43.114;12.434;2022-12-20T06:25:27;100534.69;;;5.09;100.00
33280;BME280;20403;43.114;12.434;2022-12-20T06:27:52;100533.88;;;5.09;100.00
33280;BME280;20403;43.114;12.434;2022-12-20T06:30:18;100528.75;;;5.17;100.00
33280;BME280;20403;43.114;12.434;2022-12-20T06:32:44;100530.41;;;5.26;100.00
33280;BME280;20403;43.114;12.434;2022-12-20T06:35:09;100528.03;;;5.07;100.00
33280;BME280;20403;43.114;12.434;2022-12-20T06:37:34;100538.66;;;5.03;100.00
33280;BME280;20403;43.114;12.434;2022-12-20T06:40:00;100535.34;;;5.11;100.00
33280;BME280;20403;43.114;12.434;2022-12-20T06:42:26;100530.66;;;5.15;100.00
33280;BME280;20403;43.114;12.434;2022-12-20T06:44:51;100531.41;;;5.07;100.00
33280;BME280;20403;43.114;12.434;2022-12-20T06:47:16;100532.91;;;4.92;100.00
33280;BME280;20403;43.114;12.434;2022-12-20T06:49:41;100530.31;;;4.92;100.00
33280;BME280;20403;43.114;12.434;2022-12-20T06:52:07;100544.44;;;4.97;100.00
33280;BME280;20403;43.114;12.434;2022-12-20T06:54:32;100533.00;;;4.82;100.00
33280;BME280;20403;43.114;12.434;2022-12-20T06:56:57;100531.06;;;4.84;100.00
33280;BME280;20403;43.114;12.434;2022-12-20T06:59:23;100542.44;;;4.91;100.00
33280;BME280;20403;43.114;12.434;2022-12-20T07:01:48;100536.03;;;4.95;100.00
33280;BME280;20403;43.114;12.434;2022-12-20T07:04:13;100542.00;;;4.96;100.00
33280;BME280;20403;43.114;12.434;2022-12-20T07:06:38;100543.09;;;4.93;100.00
33280;BME280;20403;43.114;12.434;2022-12-20T07:09:04;100542.31;;;4.93;100.00
33280;BME280;20403;43.114;12.434;2022-12-20T07:11:29;100543.19;;;5.01;100.00
33280;BME280;20403;43.114;12.434;2022-12-20T07:13:55;100546.56;;;5.02;100.00
33280;BME280;20403;43.114;12.434;2022-12-20T07:16:21;100541.75;;;5.07;100.00
33280;BME280;20403;43.114;12.434;2022-12-20T07:18:50;100540.78;;;5.08;100.00
33280;BME280;20403;43.114;12.434;2022-12-20T07:21:17;100539.31;;;5.05;100.00
33280;BME280;20403;43.114;12.434;2022-12-20T07:23:43;100537.47;;;5.16;100.00
33280;BME280;20403;43.114;12.434;2022-12-20T07:26:09;100539.88;;;5.17;100.00
33280;BME280;20403;43.114;12.434;2022-12-20T07:28:35;100534.25;;;4.96;100.00
33280;BME280;20403;43.114;12.434;2022-12-20T07:31:01;100530.41;;;4.82;100.00
33280;BME280;20403;43.114;12.434;2022-12-20T07:33:26;100531.06;;;4.84;100.00
33280;BME280;20403;43.114;12.434;2022-12-20T07:35:58;100531.78;;;4.94;100.00
33280;BME280;20403;43.114;12.434;2022-12-20T07:38:23;100523.91;;;4.96;100.00
33280;BME280;20403;43.114;12.434;2022-12-20T07:40:48;100531.44;;;4.89;100.00
33280;BME280;20403;43.114;12.434;2022-12-20T07:43:14;100525.72;;;5.03;100.00
33280;BME280;20403;43.114;12.434;2022-12-20T07:45:39;100529.84;;;5.14;100.00
33280;BME280;20403;43.114;12.434;2022-12-20T07:48:05;100533.19;;;5.24;100.00
33280;BME280;20403;43.114;12.434;2022-12-20T07:50:32;100538.03;;;5.28;100.00
33280;BME280;20403;43.114;12.434;2022-12-20T07:52:58;100535.22;;;5.39;100.00
33280;BME280;20403;43.114;12.434;2022-12-20T07:55:24;100535.03;;;5.40;100.00
33280;BME280;20403;43.114;12.434;2022-12-20T07:57:54;100534.91;;;5.42;100.00
33280;BME280;20403;43.114;12.434;2022-12-20T08:00:21;100532.81;;;5.45;100.00
33280;BME280;20403;43.114;12.434;2022-12-20T08:02:54;100541.53;;;5.44;100.00
33280;BME280;20403;43.114;12.434;2022-12-20T08:05:20;100534.53;;;5.37;100.00
33280;BME280;20403;43.114;12.434;2022-12-20T08:07:46;100523.44;;;5.18;100.00
33280;BME280;20403;43.114;12.434;2022-12-20T08:10:12;100530.88;;;5.21;100.00
33280;BME280;20403;43.114;12.434;2022-12-20T08:12:38;100534.34;;;5.30;100.00
33280;BME280;20403;43.114;12.434;2022-12-20T08:15:04;100530.38;;;5.44;100.00
33280;BME280;20403;43.114;12.434;2022-12-20T08:17:29;100528.75;;;5.43;100.00
33280;BME280;20403;43.114;12.434;2022-12-20T08:19:55;100534.78;;;5.25;100.00
33280;BME280;20403;43.114;12.434;2022-12-20T08:22:21;100534.09;;;5.15;100.00
33280;BME280;20403;43.114;12.434;2022-12-20T08:24:47;100532.97;;;5.18;100.00
33280;BME280;20403;43.114;12.434;2022-12-20T08:27:12;100529.66;;;5.08;100.00
33280;BME280;20403;43.114;12.434;2022-12-20T08:29:39;100539.59;;;5.20;100.00
33280;BME280;20403;43.114;12.434;2022-12-20T08:32:04;100531.66;;;5.40;100.00
33280;BME280;20403;43.114;12.434;2022-12-20T08:34:30;100541.19;;;5.39;100.00
33280;BME280;20403;43.114;12.434;2022-12-20T08:36:55;100536.31;;;5.36;100.00
33280;BME280;20403;43.114;12.434;2022-12-20T08:39:20;100530.38;;;5.18;100.00
33280;BME280;20403;43.114;12.434;2022-12-20T08:41:45;100535.09;;;5.22;100.00
33280;BME280;20403;43.114;12.434;2022-12-20T08:44:11;100534.69;;;5.35;100.00
33280;BME280;20403;43.114;12.434;2022-12-20T08:46:37;100529.97;;;5.31;100.00
33280;BME280;20403;43.114;12.434;2022-12-20T08:49:03;100529.50;;;5.35;100.00
33280;BME280;20403;43.114;12.434;2022-12-20T08:51:28;100541.88;;;5.50;100.00
33280;BME280;20403;43.114;12.434;2022-12-20T08:53:53;100543.22;;;5.54;100.00
33280;BME280;20403;43.114;12.434;2022-12-20T08:56:19;100536.25;;;5.54;100.00
33280;BME280;20403;43.114;12.434;2022-12-20T08:58:44;100538.75;;;5.64;100.00
33280;BME280;20403;43.114;12.434;2022-12-20T09:01:11;100537.31;;;5.69;100.00
33280;BME280;20403;43.114;12.434;2022-12-20T09:03:36;100539.03;;;5.61;100.00
33280;BME280;20403;43.114;12.434;2022-12-20T09:06:07;100533.91;;;5.69;100.00
33280;BME280;20403;43.114;12.434;2022-12-20T09:08:33;100540.31;;;5.57;100.00
33280;BME280;20403;43.114;12.434;2022-12-20T09:11:02;100538.91;;;5.71;100.00
33280;BME280;20403;43.114;12.434;2022-12-20T09:13:28;100535.88;;;5.75;100.00
33280;BME280;20403;43.114;12.434;2022-12-20T09:15:53;100542.34;;;5.71;100.00
33280;BME280;20403;43.114;12.434;2022-12-20T09:18:18;100524.22;;;5.71;100.00
33280;BME280;20403;43.114;12.434;2022-12-20T09:20:43;100534.59;;;5.79;100.00
33280;BME280;20403;43.114;12.434;2022-12-20T09:23:11;100537.50;;;5.76;100.00
33280;BME280;20403;43.114;12.434;2022-12-20T09:25:37;100531.56;;;5.84;100.00
33280;BME280;20403;43.114;12.434;2022-12-20T09:28:03;100536.13;;;5.90;100.00
33280;BME280;20403;43.114;12.434;2022-12-20T09:30:28;100529.59;;;5.78;100.00
33280;BME280;20403;43.114;12.434;2022-12-20T09:32:53;100532.22;;;5.86;100.00
33280;BME280;20403;43.114;12.434;2022-12-20T09:35:18;100523.53;;;5.95;100.00
33280;BME280;20403;43.114;12.434;2022-12-20T09:37:44;100527.31;;;6.01;100.00
33280;BME280;20403;43.114;12.434;2022-12-20T09:40:13;100520.66;;;6.06;100.00
33280;BME280;20403;43.114;12.434;2022-12-20T09:42:41;100520.38;;;6.18;100.00
33280;BME280;20403;43.114;12.434;2022-12-20T09:45:06;100516.81;;;6.19;100.00
33280;BME280;20403;43.114;12.434;2022-12-20T09:47:33;100507.28;;;6.27;100.00
33280;BME280;20403;43.114;12.434;2022-12-20T09:49:59;100510.41;;;6.39;100.00
33280;BME280;20403;43.114;12.434;2022-12-20T09:55:18;100506.66;;;6.42;100.00
33280;BME280;20403;43.114;12.434;2022-12-20T10:00:44;100493.41;;;6.53;100.00
33280;BME280;20403;43.114;12.434;2022-12-20T10:03:17;100492.28;;;6.47;100.00
33280;BME280;20403;43.114;12.434;2022-12-20T10:10:58;100484.81;;;6.36;100.00
33280;BME280;20403;43.114;12.434;2022-12-20T10:18:46;100473.78;;;6.34;100.00
33280;BME280;20403;43.114;12.434;2022-12-20T10:21:25;100461.81;;;6.25;100.00
33280;BME280;20403;43.114;12.434;2022-12-20T10:26:39;100463.91;;;6.38;100.00
33280;BME280;20403;43.114;12.434;2022-12-20T10:29:04;100460.22;;;6.40;100.00
33280;BME280;20403;43.114;12.434;2022-12-20T10:31:29;100465.38;;;6.32;100.00
33280;BME280;20403;43.114;12.434;2022-12-20T10:33:55;100464.91;;;6.28;100.00
33280;BME280;20403;43.114;12.434;2022-12-20T10:38:56;100461.81;;;6.33;100.00
33280;BME280;20403;43.114;12.434;2022-12-20T10:41:25;100456.47;;;6.51;100.00
33280;BME280;20403;43.114;12.434;2022-12-20T10:43:56;100456.31;;;6.69;100.00
33280;BME280;20403;43.114;12.434;2022-12-20T10:46:27;100456.97;;;6.71;100.00
33280;BME280;20403;43.114;12.434;2022-12-20T10:48:58;100446.59;;;6.71;100.00
33280;BME280;20403;43.114;12.434;2022-12-20T10:51:50;100441.41;;;6.63;100.00
33280;BME280;20403;43.114;12.434;2022-12-20T10:54:22;100441.91;;;6.58;100.00
33280;BME280;20403;43.114;12.434;2022-12-20T10:56:53;100439.00;;;6.69;100.00
33280;BME280;20403;43.114;12.434;2022-12-20T11:01:45;100432.66;;;6.97;100.00
33280;BME280;20403;43.114;12.434;2022-12-20T11:04:25;100422.28;;;7.05;100.00
33280;BME280;20403;43.114;12.434;2022-12-20T11:06:52;100414.28;;;7.14;100.00
33280;BME280;20403;43.114;12.434;2022-12-20T11:12:05;100408.38;;;7.37;100.00
33280;BME280;20403;43.114;12.434;2022-12-20T11:14:32;100407.25;;;7.31;100.00
33280;BME280;20403;43.114;12.434;2022-12-20T11:16:58;100401.97;;;7.17;100.00
33280;BME280;20403;43.114;12.434;2022-12-20T11:19:37;100402.13;;;7.07;100.00
33280;BME280;20403;43.114;12.434;2022-12-20T11:25:05;100392.16;;;6.96;100.00
33280;BME280;20403;43.114;12.434;2022-12-20T11:27:50;100385.91;;;7.21;100.00
33280;BME280;20403;43.114;12.434;2022-12-20T11:30:28;100381.81;;;7.27;100.00
33280;BME280;20403;43.114;12.434;2022-12-20T11:35:21;100384.56;;;7.25;100.00
33280;BME280;20403;43.114;12.434;2022-12-20T11:40:31;100358.59;;;7.33;100.00
33280;BME280;20403;43.114;12.434;2022-12-20T11:48:09;100356.97;;;7.95;100.00
33280;BME280;20403;43.114;12.434;2022-12-20T11:55:55;100342.28;;;8.25;100.00
33280;BME280;20403;43.114;12.434;2022-12-20T11:58:29;100339.59;;;8.33;100.00
33280;BME280;20403;43.114;12.434;2022-12-20T12:03:31;100341.28;;;8.49;100.00
33280;BME280;20403;43.114;12.434;2022-12-20T12:08:52;100327.41;;;8.34;100.00
33280;BME280;20403;43.114;12.434;2022-12-20T12:11:23;100325.97;;;8.31;100.00
33280;BME280;20403;43.114;12.434;2022-12-20T12:13:49;100332.28;;;8.37;100.00
33280;BME280;20403;43.114;12.434;2022-12-20T12:16:28;100328.19;;;8.19;100.00
33280;BME280;20403;43.114;12.434;2022-12-20T12:18:58;100322.66;;;8.23;100.00
33280;BME280;20403;43.114;12.434;2022-12-20T12:21:25;100322.66;;;8.23;100.00
33280;BME280;20403;43.114;12.434;2022-12-20T12:24:01;100323.75;;;8.28;100.00
33280;BME280;20403;43.114;12.434;2022-12-20T12:26:34;100321.81;;;8.45;100.00
33280;BME280;20403;43.114;12.434;2022-12-20T12:29:03;100320.75;;;8.54;100.00
33280;BME280;20403;43.114;12.434;2022-12-20T12:44:48;100295.28;;;9.09;100.00
33280;BME280;20403;43.114;12.434;2022-12-20T12:47:18;100290.78;;;9.18;100.00
33280;BME280;20403;43.114;12.434;2022-12-20T12:49:46;100294.44;;;9.23;100.00
33280;BME280;20403;43.114;12.434;2022-12-20T12:52:25;100295.84;;;9.41;100.00
33280;BME280;20403;43.114;12.434;2022-12-20T12:54:51;100296.25;;;9.44;100.00
33280;BME280;20403;43.114;12.434;2022-12-20T12:57:17;100299.47;;;9.61;100.00
33280;BME280;20403;43.114;12.434;2022-12-20T12:59:47;100296.03;;;9.61;100.00
33280;BME280;20403;43.114;12.434;2022-12-20T13:10:00;100288.81;;;9.20;100.00
33280;BME280;20403;43.114;12.434;2022-12-20T13:15:00;100286.94;;;9.14;100.00
33280;BME280;20403;43.114;12.434;2022-12-20T13:19:51;100278.56;;;9.18;100.00
33280;BME280;20403;43.114;12.434;2022-12-20T13:22:21;100281.66;;;9.29;100.00
33280;BME280;20403;43.114;12.434;2022-12-20T13:27:21;100278.41;;;9.20;100.00
33280;BME280;20403;43.114;12.434;2022-12-20T13:29:51;100281.81;;;9.05;100.00
33280;BME280;20403;43.114;12.434;2022-12-20T13:35:02;100283.72;;;8.82;100.00
33280;BME280;20403;43.114;12.434;2022-12-20T13:37:28;100273.53;;;8.80;100.00
33280;BME280;20403;43.114;12.434;2022-12-20T13:39:54;100278.72;;;8.80;100.00
33280;BME280;20403;43.114;12.434;2022-12-20T13:42:38;100278.72;;;8.80;100.00
33280;BME280;20403;43.114;12.434;2022-12-20T13:45:04;100271.47;;;8.76;100.00
33280;BME280;20403;43.114;12.434;2022-12-20T13:47:33;100268.56;;;8.71;100.00
33280;BME280;20403;43.114;12.434;2022-12-20T13:50:00;100260.09;;;8.62;100.00
33280;BME280;20403;43.114;12.434;2022-12-20T13:52:30;100266.78;;;8.56;100.00
33280;BME280;20403;43.114;12.434;2022-12-20T13:54:57;100267.44;;;8.44;100.00
33280;BME280;20403;43.114;12.434;2022-12-20T13:59:53;100258.34;;;8.39;100.00
33280;BME280;20403;43.114;12.434;2022-12-20T14:02:21;100260.31;;;8.37;100.00
33280;BME280;20403;43.114;12.434;2022-12-20T14:04:58;100259.69;;;8.35;100.00
33280;BME280;20403;43.114;12.434;2022-12-20T14:07:24;100256.06;;;8.21;100.00
33280;BME280;20403;43.114;12.434;2022-12-20T14:09:54;100262.28;;;8.20;100.00
33280;BME280;20403;43.114;12.434;2022-12-20T14:12:20;100254.19;;;8.15;100.00
33280;BME280;20403;43.114;12.434;2022-12-20T14:14:46;100254.53;;;8.12;100.00
33280;BME280;20403;43.114;12.434;2022-12-20T14:17:28;100257.91;;;7.98;100.00
33280;BME280;20403;43.114;12.434;2022-12-20T14:22:27;100253.38;;;7.77;100.00
33280;BME280;20403;43.114;12.434;2022-12-20T14:24:53;100255.06;;;7.70;100.00
33280;BME280;20403;43.114;12.434;2022-12-20T14:27:18;100246.13;;;7.72;100.00
33280;BME280;20403;43.114;12.434;2022-12-20T14:29:43;100240.34;;;7.62;100.00